Time;durP1;ratioP1;P1;durP2;ratioP2;P2;SDS_P1;SDS_P2;PMS_P1;PMS_P2;Temp;Humidity;BMP_temperature;BMP_pressure;BME280_temperature;BME280_humidity;BME280_pressure;Samples;Min_cycle;Max_cycle;Signal;HPM_P1;HPM_P2
2023/05/03 00:00:50;;;;;;;17.90;8.75;;;;;;;3.83;100.00;93658.22;2556087;23;20214;-83
2023/05/03 00:01:52;;;;;;;14.93;8.30;;;;;;;3.84;100.00;93665.03;2568935;23;20015;-83
2023/05/03 00:02:56;;;;;;;15.85;8.43;;;;;;;3.83;100.00;93671.47;2556251;23;20005;-82
2023/05/03 00:03:57;;;;;;;17.90;8.65;;;;;;;3.79;100.00;93669.53;2544962;23;20081;-82
2023/05/03 00:04:59;;;;;;;16.90;8.93;;;;;;;3.81;100.00;93669.16;2555803;23;20008;-83
2023/05/03 00:06:14;;;;;;;20.23;8.98;;;;;;;3.81;100.00;93676.31;2556690;23;20001;-82
2023/05/03 00:07:19;;;;;;;17.17;8.50;;;;;;;3.82;100.00;93672.56;2568568;23;20122;-83
2023/05/03 00:08:20;;;;;;;17.73;8.77;;;;;;;3.75;100.00;93686.47;2568259;23;20030;-82
2023/05/03 00:09:21;;;;;;;21.88;9.50;;;;;;;3.75;100.00;93678.53;2556326;23;20375;-81
2023/05/03 00:10:24;;;;;;;16.95;9.00;;;;;;;3.77;100.00;93674.38;2555900;23;20040;-83
2023/05/03 00:11:26;;;;;;;15.02;8.23;;;;;;;3.75;100.00;93681.94;2544824;23;20008;-82
2023/05/03 00:12:28;;;;;;;17.35;8.85;;;;;;;3.70;100.00;93687.53;2543956;23;20487;-82
2023/05/03 00:13:31;;;;;;;18.80;8.32;;;;;;;3.73;100.00;93676.25;2556320;23;20535;-83
2023/05/03 00:14:35;;;;;;;17.50;8.68;;;;;;;3.67;100.00;93679.56;2557133;23;20321;-82
2023/05/03 00:15:37;;;;;;;20.08;9.00;;;;;;;3.63;100.00;93678.75;2568099;23;20004;-83
2023/05/03 00:16:38;;;;;;;23.52;9.45;;;;;;;3.63;100.00;93682.13;2568513;23;20004;-83
2023/05/03 00:17:39;;;;;;;18.95;9.05;;;;;;;3.62;100.00;93679.88;2581368;23;20054;-82
2023/05/03 00:18:40;;;;;;;17.73;8.90;;;;;;;3.63;100.00;93678.75;2556010;23;20005;-82
2023/05/03 00:19:41;;;;;;;21.15;10.45;;;;;;;3.71;100.00;93677.72;2556747;23;20515;-83
2023/05/03 00:20:42;;;;;;;19.63;9.70;;;;;;;3.67;100.00;93679.56;2556183;23;20012;-83
2023/05/03 00:21:44;;;;;;;22.35;10.50;;;;;;;3.73;100.00;93678.09;2544311;23;20088;-82
2023/05/03 00:22:46;;;;;;;19.90;9.48;;;;;;;3.71;100.00;93672.44;2543924;23;20331;-83
2023/05/03 00:23:47;;;;;;;20.73;9.65;;;;;;;3.77;100.00;93665.69;2568375;23;20008;-82
2023/05/03 00:24:49;;;;;;;17.73;9.55;;;;;;;3.75;100.00;93667.94;2555563;23;20005;-82
2023/05/03 00:25:52;;;;;;;21.33;10.10;;;;;;;3.70;100.00;93666.38;2544582;23;20002;-83
2023/05/03 00:26:53;;;;;;;22.88;10.25;;;;;;;3.73;100.00;93662.25;2556291;23;20013;-83
2023/05/03 00:27:56;;;;;;;39.85;11.68;;;;;;;3.88;100.00;93669.25;2544401;23;20084;-83
2023/05/03 00:28:57;;;;;;;27.00;11.13;;;;;;;3.91;100.00;93671.19;2543993;23;20005;-83
2023/05/03 00:29:58;;;;;;;22.05;10.20;;;;;;;3.94;100.00;93667.03;2555704;23;20008;-83
2023/05/03 00:31:09;;;;;;;20.92;10.05;;;;;;;3.86;100.00;93668.84;2568485;23;20005;-82
2023/05/03 00:32:10;;;;;;;24.55;10.60;;;;;;;3.80;100.00;93665.00;2558065;23;20040;-82
2023/05/03 00:33:11;;;;;;;20.17;10.02;;;;;;;3.79;100.00;93663.47;2544410;23;20021;-83
2023/05/03 00:34:12;;;;;;;22.88;10.00;;;;;;;3.85;100.00;93661.28;2556186;23;20071;-82
2023/05/03 00:35:14;;;;;;;20.65;10.52;;;;;;;3.91;100.00;93663.25;2543005;23;20436;-82
2023/05/03 00:36:15;;;;;;;22.25;10.07;;;;;;;3.91;100.00;93659.84;2556326;23;20007;-83
2023/05/03 00:37:16;;;;;;;28.02;10.93;;;;;;;3.90;100.00;93656.41;2556246;23;20004;-83
2023/05/03 00:38:17;;;;;;;22.95;10.95;;;;;;;3.98;100.00;93651.97;2556536;23;20546;-83
2023/05/03 00:39:18;;;;;;;21.17;9.70;;;;;;;3.93;100.00;93663.63;2543834;23;20009;-83
2023/05/03 00:40:19;;;;;;;20.50;10.60;;;;;;;3.94;100.00;93659.88;2556061;23;20005;-82
2023/05/03 00:41:23;;;;;;;16.88;9.63;;;;;;;3.91;100.00;93660.59;2568382;23;20011;-83
2023/05/03 00:42:24;;;;;;;25.00;10.98;;;;;;;3.90;100.00;93656.41;2568850;23;20004;-82
2023/05/03 00:43:26;;;;;;;20.35;10.15;;;;;;;3.92;100.00;93650.78;2581766;22;20512;-81
2023/05/03 00:44:29;;;;;;;23.92;10.73;;;;;;;3.98;100.00;93652.75;2568420;23;20084;-83
2023/05/03 00:45:34;;;;;;;19.63;10.18;;;;;;;4.11;100.00;93647.97;2569025;23;20758;-82
2023/05/03 00:46:35;;;;;;;23.55;10.65;;;;;;;4.10;100.00;93645.69;2556841;23;20103;-83
2023/05/03 00:47:38;;;;;;;26.17;12.27;;;;;;;4.05;100.00;93644.13;2568873;22;20515;-82
2023/05/03 00:48:41;;;;;;;28.05;11.30;;;;;;;4.04;100.00;93648.66;2594116;22;20053;-83
2023/05/03 00:49:43;;;;;;;23.02;11.13;;;;;;;4.02;100.00;93644.84;2568504;23;20082;-83
2023/05/03 00:50:48;;;;;;;24.05;11.25;;;;;;;4.04;100.00;93648.66;2544215;23;20001;-82
2023/05/03 00:51:51;;;;;;;22.65;10.90;;;;;;;4.07;100.00;93644.53;2558172;23;20005;-83
2023/05/03 00:52:53;;;;;;;26.15;11.15;;;;;;;4.08;100.00;93645.28;2569278;23;20027;-82
2023/05/03 00:53:55;;;;;;;27.15;11.48;;;;;;;4.16;100.00;93644.25;2568442;23;20036;-83
2023/05/03 00:54:57;;;;;;;23.83;11.18;;;;;;;4.11;100.00;93637.41;2556045;23;20012;-82
2023/05/03 00:55:59;;;;;;;25.08;11.27;;;;;;;4.13;100.00;93637.81;2559115;23;20051;-83
2023/05/03 00:57:03;;;;;;;26.42;11.40;;;;;;;4.15;100.00;93635.56;2564570;23;20005;-83
2023/05/03 00:58:04;;;;;;;29.17;11.57;;;;;;;4.19;100.00;93644.28;2547493;23;20020;-82
2023/05/03 00:59:12;;;;;;;30.05;12.20;;;;;;;4.18;100.00;93642.78;2558204;23;20001;-83
2023/05/03 01:00:13;;;;;;;28.95;11.73;;;;;;;4.17;100.00;93643.13;2558383;23;20036;-83
2023/05/03 01:01:15;;;;;;;25.98;12.18;;;;;;;4.20;100.00;93645.81;2557301;23;20111;-82
2023/05/03 01:02:16;;;;;;;32.10;13.30;;;;;;;4.23;100.00;93642.44;2556988;23;20009;-82
2023/05/03 01:03:17;;;;;;;29.05;12.70;;;;;;;4.23;100.00;93644.34;2569223;23;20059;-81
2023/05/03 01:04:20;;;;;;;31.27;12.70;;;;;;;4.20;100.00;93645.81;2556982;23;20008;-83
2023/05/03 01:05:22;;;;;;;26.38;12.13;;;;;;;4.19;100.00;93649.59;2558473;23;20462;-84
2023/05/03 01:06:42;;;;;;;31.05;12.13;;;;;;;4.22;100.00;93642.81;2568564;23;20088;-83
2023/05/03 01:08:25;;;;;;;23.80;11.15;;;;;;;4.25;100.00;93645.47;2560007;23;20016;-83
2023/05/03 01:09:49;;;;;;;26.45;11.70;;;;;;;4.20;100.00;93648.44;2564948;23;20498;-82
2023/05/03 01:11:00;;;;;;;25.40;10.77;;;;;;;4.15;100.00;93643.50;2553658;23;20005;-83
2023/05/03 01:12:10;;;;;;;26.10;11.82;;;;;;;4.00;100.00;93633.88;2548100;23;20010;-85
2023/05/03 01:13:17;;;;;;;30.48;12.00;;;;;;;4.08;100.00;93642.63;2547990;23;20055;-84
2023/05/03 01:14:21;;;;;;;29.95;12.20;;;;;;;4.07;100.00;93641.13;2558048;23;20637;-82
2023/05/03 01:15:59;;;;;;;28.88;12.82;;;;;;;4.08;100.00;93638.09;2557889;23;20527;-82
2023/05/03 01:17:09;;;;;;;30.73;12.45;;;;;;;4.11;100.00;93641.94;2563955;23;20423;-83
2023/05/03 01:18:17;;;;;;;26.25;11.85;;;;;;;4.09;100.00;93641.53;2559855;23;20051;-82
2023/05/03 01:19:27;;;;;;;26.25;12.65;;;;;;;4.07;100.00;93641.88;2570352;23;20004;-83
2023/05/03 01:20:31;;;;;;;27.45;11.30;;;;;;;3.99;100.00;93640.28;2558782;23;20048;-83
2023/05/03 01:21:33;;;;;;;29.58;12.27;;;;;;;3.96;100.00;93641.00;2557021;23;20011;-83
2023/05/03 01:22:55;;;;;;;27.98;12.70;;;;;;;4.02;100.00;93639.56;2568798;23;20474;-83
2023/05/03 01:24:06;;;;;;;28.02;12.13;;;;;;;3.98;100.00;93631.59;2571877;23;20373;-83
2023/05/03 01:25:12;;;;;;;24.58;11.18;;;;;;;4.00;100.00;93636.53;2569835;23;20004;-83
2023/05/03 01:26:16;;;;;;;25.85;12.40;;;;;;;3.89;100.00;93628.47;2568585;23;20485;-82
2023/05/03 01:27:18;;;;;;;27.83;12.10;;;;;;;3.92;100.00;93630.38;2557507;23;20707;-82
2023/05/03 01:28:19;;;;;;;21.00;10.82;;;;;;;3.91;100.00;93633.41;2568937;23;20008;-82
2023/05/03 01:29:20;;;;;;;24.23;10.95;;;;;;;3.85;100.00;93632.19;2556346;23;20428;-83
2023/05/03 01:30:25;;;;;;;23.10;11.85;;;;;;;3.87;100.00;93628.06;2568054;23;20035;-83
2023/05/03 01:31:39;;;;;;;25.63;12.02;;;;;;;3.95;100.00;93623.59;2556626;23;20005;-82
2023/05/03 01:33:04;;;;;;;26.38;11.57;;;;;;;3.84;100.00;93625.38;2549233;23;20392;-83
2023/05/03 01:34:17;;;;;;;27.02;10.95;;;;;;;3.79;100.00;93621.94;2566213;23;20004;-81
2023/05/03 01:35:33;;;;;;;30.15;12.88;;;;;;;3.83;100.00;93616.69;2567807;23;20299;-83
2023/05/03 01:36:36;;;;;;;30.25;11.88;;;;;;;3.92;100.00;93627.00;2568404;23;20335;-83
2023/05/03 01:37:39;;;;;;;31.50;12.57;;;;;;;3.81;100.00;93621.56;2556866;23;20008;-83
2023/05/03 01:38:41;;;;;;;24.90;11.25;;;;;;;3.73;100.00;93622.59;2555913;23;20471;-80
2023/05/03 01:40:00;;;;;;;26.67;11.50;;;;;;;3.70;100.00;93628.63;2556552;23;20055;-82
2023/05/03 01:41:05;;;;;;;30.58;11.80;;;;;;;3.68;100.00;93623.66;2559289;23;20008;-83
2023/05/03 01:42:08;;;;;;;24.23;11.05;;;;;;;3.64;100.00;93624.75;2569239;23;20274;-82
2023/05/03 01:43:15;;;;;;;23.00;10.93;;;;;;;3.68;100.00;93631.59;2567979;23;20070;-84
2023/05/03 01:44:17;;;;;;;25.00;11.63;;;;;;;3.76;100.00;93624.53;2557694;23;20445;-82
2023/05/03 01:45:18;;;;;;;27.90;11.82;;;;;;;3.76;100.00;93629.81;2568224;23;20001;-84
2023/05/03 01:46:19;;;;;;;30.08;12.63;;;;;;;3.75;100.00;93623.00;2580990;23;20038;-82
2023/05/03 01:47:20;;;;;;;28.23;11.35;;;;;;;3.77;100.00;93634.72;2556533;23;20004;-83
2023/05/03 01:48:21;;;;;;;28.83;11.65;;;;;;;3.81;100.00;93636.66;2556305;23;20012;-83
2023/05/03 01:49:22;;;;;;;29.98;12.43;;;;;;;3.81;100.00;93634.78;2568195;23;20413;-82
2023/05/03 01:50:24;;;;;;;25.80;11.40;;;;;;;3.78;100.00;93624.94;2555113;23;20012;-83
2023/05/03 01:51:26;;;;;;;25.35;11.48;;;;;;;3.79;100.00;93634.38;2543967;23;20002;-81
2023/05/03 01:52:27;;;;;;;26.20;11.20;;;;;;;3.84;100.00;93631.44;2556212;23;20035;-82
2023/05/03 01:53:28;;;;;;;25.63;11.27;;;;;;;3.91;100.00;93623.59;2555994;23;20436;-83
2023/05/03 01:54:30;;;;;;;27.15;12.15;;;;;;;3.96;100.00;93623.25;2556409;23;20009;-82
2023/05/03 01:55:31;;;;;;;21.50;10.32;;;;;;;3.75;100.00;93629.06;2555376;23;20079;-82
2023/05/03 01:56:35;;;;;;;24.15;11.52;;;;;;;3.62;100.00;93627.00;2555775;23;20427;-83
2023/05/03 01:57:36;;;;;;;21.98;10.50;;;;;;;3.55;100.00;93627.66;2569317;23;20054;-83
2023/05/03 01:58:37;;;;;;;23.42;10.50;;;;;;;3.65;100.00;93632.34;2568761;23;20319;-82
2023/05/03 01:59:38;;;;;;;27.42;11.05;;;;;;;3.66;100.00;93625.16;2556365;23;20005;-81
2023/05/03 02:00:39;;;;;;;24.80;11.20;;;;;;;3.51;100.00;93627.63;2567936;23;20012;-84
2023/05/03 02:01:40;;;;;;;23.50;11.32;;;;;;;3.51;100.00;93625.00;2543364;23;20001;-82
2023/05/03 02:02:41;;;;;;;22.35;10.55;;;;;;;3.47;100.00;93620.78;2543810;23;20067;-83
2023/05/03 02:03:42;;;;;;;22.63;11.25;;;;;;;3.41;100.00;93628.22;2568722;23;20497;-82
2023/05/03 02:04:43;;;;;;;27.63;11.73;;;;;;;3.46;100.00;93620.00;2568801;23;20405;-83
2023/05/03 02:05:44;;;;;;;25.15;11.80;;;;;;;3.48;100.00;93630.97;2556245;23;20008;-83
2023/05/03 02:06:45;;;;;;;24.25;11.45;;;;;;;3.47;100.00;93628.72;2555910;23;20008;-83
2023/05/03 02:07:47;;;;;;;26.50;11.30;;;;;;;3.51;100.00;93624.19;2568515;23;20382;-83
2023/05/03 02:08:48;;;;;;;27.88;11.88;;;;;;;3.49;100.00;93631.75;2568714;23;20075;-82
2023/05/03 02:09:49;;;;;;;22.10;10.80;;;;;;;3.56;100.00;93631.06;2568862;23;20009;-82
2023/05/03 02:10:50;;;;;;;23.55;10.75;;;;;;;3.50;100.00;93633.25;2568450;23;20011;-83
2023/05/03 02:11:51;;;;;;;22.23;11.10;;;;;;;3.46;100.00;93637.72;2555688;23;20001;-83
2023/05/03 02:12:57;;;;;;;19.67;10.52;;;;;;;3.38;100.00;93634.25;2556152;23;20032;-84
2023/05/03 02:13:58;;;;;;;21.52;10.32;;;;;;;3.29;100.00;93639.00;2545839;23;20104;-81
2023/05/03 02:14:59;;;;;;;21.77;10.95;;;;;;;3.23;100.00;93633.28;2543675;23;20431;-83
2023/05/03 02:16:00;;;;;;;20.90;10.20;;;;;;;3.21;100.00;93637.41;2543993;23;20016;-83
2023/05/03 02:17:01;;;;;;;25.00;10.90;;;;;;;3.13;100.00;93633.13;2556131;23;20004;-84
2023/05/03 02:18:04;;;;;;;24.15;11.23;;;;;;;3.19;100.00;93627.19;2543669;23;20465;-84
2023/05/03 02:19:06;;;;;;;22.98;10.80;;;;;;;3.18;100.00;93627.53;2561364;23;20023;-82
2023/05/03 02:20:11;;;;;;;28.38;11.52;;;;;;;3.14;100.00;93619.56;2561304;23;20044;-82
2023/05/03 02:21:12;;;;;;;22.27;9.75;;;;;;;3.15;100.00;93633.53;2550978;23;19998;-82
2023/05/03 02:22:13;;;;;;;22.20;10.68;;;;;;;3.13;100.00;93625.97;2550192;23;20065;-81
2023/05/03 02:23:15;;;;;;;23.08;10.80;;;;;;;3.21;100.00;93630.25;2550211;23;20381;-83
2023/05/03 02:24:16;;;;;;;23.73;11.90;;;;;;;3.26;100.00;93635.22;2543753;23;20403;-82
2023/05/03 02:25:17;;;;;;;21.70;10.82;;;;;;;3.27;100.00;93628.03;2543093;23;20633;-82
2023/05/03 02:26:19;;;;;;;21.08;10.50;;;;;;;3.26;100.00;93632.56;2555984;23;20004;-83
2023/05/03 02:27:19;;;;;;;24.88;11.98;;;;;;;3.24;100.00;93626.88;2555522;23;20160;-83
2023/05/03 02:28:21;;;;;;;25.90;10.85;;;;;;;3.22;100.00;93621.19;2567502;23;20009;-83
2023/05/03 02:29:24;;;;;;;23.35;10.75;;;;;;;3.25;100.00;93622.38;2555791;23;20029;-81
2023/05/03 02:30:27;;;;;;;19.58;10.10;;;;;;;3.21;100.00;93619.66;2556716;23;20055;-83
2023/05/03 02:31:28;;;;;;;21.48;9.88;;;;;;;3.21;100.00;93619.66;2568468;23;20323;-83
2023/05/03 02:32:30;;;;;;;19.58;10.10;;;;;;;3.24;100.00;93623.47;2555936;23;20019;-83
2023/05/03 02:33:31;;;;;;;18.17;9.73;;;;;;;3.14;100.00;93624.09;2543673;23;20025;-83
2023/05/03 02:34:33;;;;;;;20.73;10.38;;;;;;;3.11;100.00;93622.16;2556318;23;20055;-82
2023/05/03 02:35:34;;;;;;;19.58;10.15;;;;;;;3.03;100.00;93622.06;2555650;23;20491;-83
2023/05/03 02:36:36;;;;;;;20.10;9.95;;;;;;;3.00;100.00;93614.84;2556022;23;20029;-83
2023/05/03 02:37:38;;;;;;;18.77;9.32;;;;;;;3.03;100.00;93621.31;2568053;23;20009;-82
2023/05/03 02:38:39;;;;;;;18.73;10.10;;;;;;;3.02;100.00;93609.19;2567620;23;20115;-82
2023/05/03 02:39:40;;;;;;;21.45;9.63;;;;;;;2.97;100.00;93620.06;2556171;23;20412;-81
2023/05/03 02:40:44;;;;;;;20.55;9.98;;;;;;;2.91;100.00;93610.94;2543291;23;20048;-83
2023/05/03 02:41:46;;;;;;;20.38;10.07;;;;;;;2.87;100.00;93612.75;2544565;23;20024;-83
2023/05/03 02:42:48;;;;;;;20.70;9.30;;;;;;;2.82;100.00;93608.53;2555604;23;20060;-83
2023/05/03 02:43:49;;;;;;;21.23;9.77;;;;;;;2.80;100.00;93608.09;2543206;23;20017;-83
2023/05/03 02:44:51;;;;;;;18.80;9.00;;;;;;;2.75;100.00;93614.44;2543503;23;20001;-82
2023/05/03 02:45:53;;;;;;;21.70;10.80;;;;;;;2.73;100.00;93618.56;2544124;23;20001;-81
2023/05/03 02:46:54;;;;;;;18.38;9.95;;;;;;;2.80;100.00;93616.03;2555894;23;20420;-83
2023/05/03 02:47:57;;;;;;;20.55;9.90;;;;;;;2.70;100.00;93611.34;2556327;23;20309;-82
2023/05/03 02:48:59;;;;;;;21.45;9.95;;;;;;;2.68;100.00;93611.72;2556305;23;20005;-83
2023/05/03 02:50:00;;;;;;;20.80;9.85;;;;;;;2.65;100.00;93606.38;2555957;23;20193;-83
2023/05/03 02:51:02;;;;;;;22.23;10.68;;;;;;;2.67;100.00;93617.31;2543347;23;20005;-82
2023/05/03 02:52:03;;;;;;;17.48;9.48;;;;;;;2.65;100.00;93606.38;2555853;23;20004;-83
2023/05/03 02:53:04;;;;;;;18.70;9.73;;;;;;;2.62;100.00;93607.84;2556136;23;20100;-84
2023/05/03 02:54:05;;;;;;;15.38;8.52;;;;;;;2.60;100.00;93606.69;2580623;23;20027;-82
2023/05/03 02:55:06;;;;;;;19.88;9.75;;;;;;;2.58;100.00;93608.88;2554909;23;20462;-83
2023/05/03 02:56:08;;;;;;;19.40;9.60;;;;;;;2.55;100.00;93606.94;2567855;23;20103;-82
2023/05/03 02:57:10;;;;;;;20.23;10.20;;;;;;;2.52;100.00;93606.56;2555714;23;20005;-83
2023/05/03 02:58:11;;;;;;;17.75;9.15;;;;;;;2.58;100.00;93611.53;2556491;23;20004;-83
2023/05/03 02:59:12;;;;;;;17.80;8.63;;;;;;;2.47;100.00;93606.84;2568436;23;20454;-83
2023/05/03 03:00:14;;;;;;;16.75;8.95;;;;;;;2.52;100.00;93611.81;2568246;23;20000;-83
2023/05/03 03:01:15;;;;;;;18.15;9.15;;;;;;;2.44;100.00;93610.19;2555320;23;20080;-83
2023/05/03 03:02:18;;;;;;;17.38;9.60;;;;;;;2.44;100.00;93614.69;2555839;23;20020;-82
2023/05/03 03:03:20;;;;;;;17.17;9.10;;;;;;;2.43;100.00;93613.19;2556538;23;20008;-83
2023/05/03 03:04:22;;;;;;;17.73;9.23;;;;;;;2.45;100.00;93610.94;2568373;23;20020;-82
2023/05/03 03:05:25;;;;;;;19.52;9.13;;;;;;;2.44;100.00;93610.19;2555581;23;20000;-83
2023/05/03 03:06:32;;;;;;;19.38;9.85;;;;;;;2.46;100.00;93618.53;2545399;23;20005;-82
2023/05/03 03:07:36;;;;;;;18.17;9.80;;;;;;;2.48;100.00;93615.53;2557170;23;20012;-84
2023/05/03 03:08:37;;;;;;;19.60;9.20;;;;;;;2.43;100.00;93608.66;2555576;23;20419;-83
2023/05/03 03:09:38;;;;;;;19.33;9.07;;;;;;;2.42;100.00;93609.03;2555321;23;20028;-83
2023/05/03 03:10:39;;;;;;;19.58;9.00;;;;;;;2.39;100.00;93607.09;2555505;23;20036;-84
2023/05/03 03:11:42;;;;;;;18.98;9.18;;;;;;;2.42;100.00;93604.50;2567302;23;20434;-82
2023/05/03 03:12:43;;;;;;;23.05;10.15;;;;;;;2.33;100.00;93605.84;2556314;23;20012;-81
2023/05/03 03:13:44;;;;;;;16.15;8.75;;;;;;;2.28;100.00;93598.97;2543451;23;20005;-83
2023/05/03 03:14:45;;;;;;;18.63;9.07;;;;;;;2.26;100.00;93598.56;2543322;23;20041;-83
2023/05/03 03:15:49;;;;;;;18.77;9.88;;;;;;;2.29;100.00;93599.75;2555492;23;20068;-82
2023/05/03 03:16:51;;;;;;;19.13;9.98;;;;;;;2.30;100.00;93596.75;2555699;23;20088;-83
2023/05/03 03:17:57;;;;;;;18.92;9.88;;;;;;;2.32;100.00;93601.69;2556080;23;20020;-83
2023/05/03 03:18:59;;;;;;;18.20;9.60;;;;;;;2.31;100.00;93600.91;2545114;23;20361;-83
2023/05/03 03:20:04;;;;;;;19.92;9.48;;;;;;;2.20;100.00;93599.97;2543677;23;20427;-83
2023/05/03 03:21:07;;;;;;;17.88;9.35;;;;;;;2.26;100.00;93595.94;2545039;23;20019;-84
2023/05/03 03:22:08;;;;;;;18.13;9.32;;;;;;;2.34;100.00;93602.09;2543095;23;20389;-83
2023/05/03 03:23:10;;;;;;;21.40;10.18;;;;;;;2.24;100.00;93598.94;2555792;23;20079;-81
2023/05/03 03:24:12;;;;;;;16.35;8.77;;;;;;;2.25;100.00;93603.09;2556205;23;20084;-83
2023/05/03 03:25:15;;;;;;;18.70;9.70;;;;;;;2.24;100.00;93601.56;2556947;23;20062;-82
2023/05/03 03:26:16;;;;;;;18.83;9.27;;;;;;;2.24;100.00;93611.34;2556680;23;20015;-83
2023/05/03 03:27:17;;;;;;;20.08;10.88;;;;;;;2.17;100.00;93601.44;2567975;23;20013;-83
2023/05/03 03:28:18;;;;;;;18.30;9.70;;;;;;;2.19;100.00;93604.47;2568647;23;20091;-84
2023/05/03 03:29:20;;;;;;;19.40;9.77;;;;;;;2.19;100.00;93606.34;2544122;23;20424;-83
2023/05/03 03:30:25;;;;;;;16.30;9.32;;;;;;;2.16;100.00;93601.78;2569076;23;20014;-84
2023/05/03 03:31:26;;;;;;;19.70;10.10;;;;;;;2.21;100.00;93599.63;2568990;23;20000;-83
2023/05/03 03:32:30;;;;;;;16.35;9.68;;;;;;;2.25;100.00;93613.63;2555697;23;20013;-82
2023/05/03 03:33:32;;;;;;;20.23;11.05;;;;;;;2.23;100.00;93600.03;2569681;22;20051;-83
2023/05/03 03:34:34;;;;;;;21.83;10.32;;;;;;;2.25;100.00;93604.97;2568880;23;20042;-83
2023/05/03 03:35:38;;;;;;;16.83;9.77;;;;;;;2.28;100.00;93601.59;2544503;23;20416;-83
2023/05/03 03:36:39;;;;;;;20.85;10.10;;;;;;;2.40;100.00;93605.97;2545129;23;20005;-83
2023/05/03 03:37:42;;;;;;;19.95;10.25;;;;;;;2.34;100.00;93610.00;2543820;23;20033;-84
2023/05/03 03:38:43;;;;;;;17.85;9.77;;;;;;;2.33;100.00;93608.47;2555815;23;20063;-83
2023/05/03 03:39:45;;;;;;;20.42;10.35;;;;;;;2.38;100.00;93608.19;2556191;23;20013;-82
2023/05/03 03:40:46;;;;;;;19.58;10.68;;;;;;;2.43;100.00;93613.94;2557330;23;20052;-84
2023/05/03 03:41:48;;;;;;;19.60;10.02;;;;;;;2.43;100.00;93610.53;2568841;23;20214;-84
2023/05/03 03:42:50;;;;;;;22.33;11.52;;;;;;;2.48;100.00;93608.38;2544220;23;20009;-83
2023/05/03 03:43:52;;;;;;;22.08;10.57;;;;;;;2.50;100.00;93605.38;2556755;23;20004;-83
2023/05/03 03:44:56;;;;;;;24.35;11.70;;;;;;;2.52;100.00;93605.78;2557023;23;20005;-83
2023/05/03 03:45:58;;;;;;;24.83;11.75;;;;;;;2.59;100.00;93607.78;2556816;23;20088;-83
2023/05/03 03:46:59;;;;;;;22.75;11.90;;;;;;;2.65;100.00;93611.66;2544558;23;20064;-83
2023/05/03 03:48:02;;;;;;;22.13;11.82;;;;;;;2.68;100.00;93610.97;2556395;23;20096;-83
2023/05/03 03:49:03;;;;;;;26.90;12.48;;;;;;;2.75;100.00;93606.53;2569372;23;20051;-83
2023/05/03 03:50:05;;;;;;;28.98;12.95;;;;;;;2.83;100.00;93606.66;2556982;23;20006;-83
2023/05/03 03:51:06;;;;;;;30.30;12.80;;;;;;;2.88;100.00;93614.28;2544675;23;20020;-83
2023/05/03 03:52:07;;;;;;;27.15;12.63;;;;;;;2.96;100.00;93615.91;2556966;23;20012;-83
2023/05/03 03:53:09;;;;;;;26.75;13.18;;;;;;;3.03;100.00;93618.66;2556937;23;20452;-83
2023/05/03 03:54:10;;;;;;;25.25;12.40;;;;;;;3.06;100.00;93611.88;2545301;23;20005;-83
2023/05/03 03:55:11;;;;;;;31.67;13.70;;;;;;;3.16;100.00;93613.91;2568977;23;20007;-83
2023/05/03 03:56:12;;;;;;;26.42;14.15;;;;;;;3.21;100.00;93617.03;2568889;23;20412;-83
2023/05/03 03:57:14;;;;;;;26.27;14.15;;;;;;;3.28;100.00;93608.44;2555859;23;20040;-83
2023/05/03 03:58:15;;;;;;;33.50;13.95;;;;;;;3.37;100.00;93608.16;2556884;23;20088;-83
2023/05/03 03:59:17;;;;;;;32.60;14.80;;;;;;;3.44;100.00;93603.00;2568722;23;20032;-84
2023/05/03 04:00:18;;;;;;;31.83;14.07;;;;;;;3.54;100.00;93612.94;2556588;23;20121;-83
2023/05/03 04:01:19;;;;;;;32.33;15.57;;;;;;;3.58;100.00;93611.09;2556469;23;20051;-83
2023/05/03 04:02:20;;;;;;;29.60;14.73;;;;;;;3.59;100.00;93603.91;2581343;23;20224;-84
2023/05/03 04:03:21;;;;;;;28.95;14.75;;;;;;;3.69;100.00;93604.06;2569249;23;20047;-82
2023/05/03 04:04:24;;;;;;;29.83;14.18;;;;;;;3.72;100.00;93605.97;2556326;23;20012;-84
2023/05/03 04:05:28;;;;;;;30.35;14.88;;;;;;;3.76;100.00;93611.31;2556465;23;20033;-83
2023/05/03 04:06:31;;;;;;;31.33;16.10;;;;;;;3.78;100.00;93606.44;2558536;23;20009;-82
2023/05/03 04:07:35;;;;;;;28.35;14.52;;;;;;;3.84;100.00;93604.97;2556449;23;20486;-83
2023/05/03 04:08:36;;;;;;;30.73;15.48;;;;;;;3.90;100.00;93608.81;2545504;23;20001;-83
2023/05/03 04:09:37;;;;;;;32.33;15.02;;;;;;;3.92;100.00;93614.53;2556674;23;19997;-83
2023/05/03 04:10:38;;;;;;;35.08;15.88;;;;;;;4.13;100.00;93603.41;2556244;23;20339;-83
2023/05/03 04:11:39;;;;;;;42.08;16.52;;;;;;;4.13;100.00;93606.06;2542520;23;20016;-82
2023/05/03 04:12:40;;;;;;;35.42;16.15;;;;;;;4.12;100.00;93606.41;2552509;23;20120;-82
2023/05/03 04:13:42;;;;;;;30.38;14.63;;;;;;;4.16;100.00;93604.56;2553289;23;20069;-82
2023/05/03 04:14:43;;;;;;;34.30;15.90;;;;;;;4.15;100.00;93603.03;2542535;23;20389;-83
2023/05/03 04:15:45;;;;;;;38.58;17.33;;;;;;;4.18;100.00;93605.75;2554417;23;20009;-83
2023/05/03 04:16:47;;;;;;;31.00;15.57;;;;;;;4.18;100.00;93607.63;2539774;23;20015;-83
2023/05/03 04:17:49;;;;;;;36.53;17.42;;;;;;;4.19;100.00;93606.50;2552559;23;20009;-83
2023/05/03 04:18:51;;;;;;;35.42;15.52;;;;;;;4.26;100.00;93607.34;2554959;23;20001;-83
2023/05/03 04:19:52;;;;;;;33.65;15.40;;;;;;;4.25;100.00;93616.38;2567073;23;20039;-83
2023/05/03 04:20:54;;;;;;;39.47;16.88;;;;;;;4.26;100.00;93611.88;2554756;23;20009;-81
2023/05/03 04:21:58;;;;;;;34.90;16.10;;;;;;;4.31;100.00;93614.19;2542853;23;20344;-83
2023/05/03 04:22:59;;;;;;;37.70;16.92;;;;;;;4.31;100.00;93619.47;2544205;23;20088;-82
2023/05/03 04:24:06;;;;;;;34.20;16.80;;;;;;;4.32;100.00;93610.41;2555286;23;20072;-83
2023/05/03 04:25:15;;;;;;;32.42;16.00;;;;;;;4.35;100.00;93612.34;2555998;23;20072;-83
2023/05/03 04:26:17;;;;;;;33.25;16.88;;;;;;;4.39;100.00;93620.28;2546402;23;20037;-83
2023/05/03 04:27:18;;;;;;;36.40;17.23;;;;;;;4.45;100.00;93627.53;2542913;23;20013;-83
2023/05/03 04:28:19;;;;;;;39.88;18.40;;;;;;;4.44;100.00;93620.75;2542179;23;20484;-84
2023/05/03 04:29:20;;;;;;;34.53;17.73;;;;;;;4.47;100.00;93616.59;2566925;23;20076;-84
2023/05/03 04:30:22;;;;;;;42.05;18.55;;;;;;;4.48;100.00;93618.13;2554505;23;20005;-82
2023/05/03 04:31:23;;;;;;;37.28;17.83;;;;;;;4.49;100.00;93619.66;2542108;23;20463;-84
2023/05/03 04:32:26;;;;;;;41.20;18.08;;;;;;;4.52;100.00;93627.63;2542273;23;20039;-83
2023/05/03 04:33:29;;;;;;;41.30;18.63;;;;;;;4.65;100.00;93622.03;2542976;23;20016;-83
2023/05/03 04:34:34;;;;;;;43.05;19.23;;;;;;;4.63;100.00;93622.41;2543108;23;20092;-82
2023/05/03 04:35:37;;;;;;;42.20;19.90;;;;;;;4.63;100.00;93619.78;2554875;23;20001;-83
2023/05/03 04:36:41;;;;;;;43.70;19.90;;;;;;;4.63;100.00;93617.13;2553884;23;20009;-83
2023/05/03 04:37:42;;;;;;;43.80;20.33;;;;;;;4.68;100.00;93614.13;2554843;23;20257;-83
2023/05/03 04:38:44;;;;;;;42.85;19.98;;;;;;;4.68;100.00;93616.78;2566461;23;20008;-83
2023/05/03 04:39:45;;;;;;;47.30;19.63;;;;;;;4.69;100.00;93623.59;2554219;23;20009;-83
2023/05/03 04:40:46;;;;;;;45.63;20.55;;;;;;;4.74;100.00;93620.63;2553791;23;20013;-82
2023/05/03 04:41:48;;;;;;;44.97;19.92;;;;;;;4.74;100.00;93619.84;2565668;23;20001;-84
2023/05/03 04:42:49;;;;;;;47.15;20.30;;;;;;;4.82;100.00;93620.66;2554154;23;20012;-83
2023/05/03 04:43:51;;;;;;;50.38;21.98;;;;;;;4.83;100.00;93622.19;2553749;23;20436;-83
2023/05/03 04:44:55;;;;;;;50.92;21.13;;;;;;;4.82;100.00;93618.03;2540763;23;20006;-83
2023/05/03 04:45:56;;;;;;;51.63;21.67;;;;;;;4.86;100.00;93624.13;2544047;23;20132;-83
2023/05/03 04:47:00;;;;;;;50.08;22.10;;;;;;;4.86;100.00;93622.22;2542036;23;20071;-83
2023/05/03 04:48:04;;;;;;;43.13;20.60;;;;;;;4.89;100.00;93618.09;2542908;23;20060;-83
2023/05/03 04:49:05;;;;;;;43.72;21.15;;;;;;;4.91;100.00;93623.78;2554911;23;20379;-82
2023/05/03 04:50:07;;;;;;;54.72;25.23;;;;;;;4.93;100.00;93630.22;2579041;22;20390;-83
2023/05/03 04:51:08;;;;;;;55.53;26.13;;;;;;;4.94;100.00;93625.69;2592615;22;20070;-84